createdAt,value
2023-01-19T00:01:56.818Z,5.93
2023-01-19T00:04:31.355Z,6.01
2023-01-19T00:07:08.442Z,5.91
2023-01-19T00:09:43.256Z,5.91
2023-01-19T00:12:17.470Z,5.95
2023-01-19T00:14:52.089Z,5.98
2023-01-19T00:17:26.362Z,6.00
2023-01-19T00:20:01.054Z,5.99
2023-01-19T00:22:36.927Z,6.11
2023-01-19T00:25:11.563Z,6.08
2023-01-19T00:27:50.902Z,6.08
2023-01-19T00:30:25.661Z,6.09
2023-01-19T00:33:00.354Z,6.02
2023-01-19T00:35:36.332Z,6.01
2023-01-19T00:38:12.725Z,5.95
2023-01-19T00:40:48.175Z,5.93
2023-01-19T00:43:22.437Z,5.92
2023-01-19T00:45:57.039Z,5.88
2023-01-19T00:48:31.202Z,5.96
2023-01-19T00:51:05.999Z,5.97
2023-01-19T00:53:41.537Z,5.84
2023-01-19T00:56:16.060Z,5.94
2023-01-19T00:58:51.033Z,6.03
2023-01-19T01:01:45.225Z,5.93
2023-01-19T01:04:19.803Z,5.94
2023-01-19T01:06:54.317Z,5.88
2023-01-19T01:09:30.089Z,5.90
2023-01-19T01:12:06.012Z,5.85
2023-01-19T01:14:40.477Z,5.83
2023-01-19T01:17:15.083Z,5.93
2023-01-19T01:19:49.353Z,5.80
2023-01-19T01:22:23.910Z,5.87
2023-01-19T01:24:59.570Z,5.83
2023-01-19T01:27:34.083Z,5.99
2023-01-19T01:30:10.490Z,5.85
2023-01-19T01:32:45.012Z,5.69
2023-01-19T01:35:19.780Z,5.69
2023-01-19T01:37:58.950Z,5.86
2023-01-19T01:40:34.611Z,5.72
2023-01-19T01:43:12.858Z,5.74
2023-01-19T01:45:47.695Z,5.51
2023-01-19T01:48:27.096Z,5.55
2023-01-19T01:51:21.113Z,5.62
2023-01-19T01:54:05.087Z,5.50
2023-01-19T01:56:44.546Z,5.46
2023-01-19T01:59:26.851Z,5.54
2023-01-19T02:02:21.528Z,5.38
2023-01-19T02:04:59.669Z,5.41
2023-01-19T02:07:56.962Z,5.42
2023-01-19T02:10:49.493Z,5.50
2023-01-19T02:13:26.038Z,5.41
2023-01-19T02:16:03.323Z,5.38
2023-01-19T02:18:38.612Z,5.50
2023-01-19T02:21:19.023Z,5.46
2023-01-19T02:23:56.724Z,5.27
2023-01-19T02:26:35.650Z,5.42
2023-01-19T02:29:12.751Z,5.45
2023-01-19T02:31:47.955Z,5.54
2023-01-19T02:34:22.988Z,5.44
2023-01-19T02:37:00.291Z,5.62
2023-01-19T02:39:39.262Z,5.54
2023-01-19T02:42:18.716Z,5.68
2023-01-19T02:44:55.899Z,5.50
2023-01-19T02:47:40.024Z,5.42
2023-01-19T02:50:41.920Z,5.35
2023-01-19T02:53:59.048Z,5.36
2023-01-19T02:57:03.839Z,5.17
2023-01-19T02:59:49.638Z,5.28
2023-01-19T03:02:36.317Z,5.37
2023-01-19T03:05:34.263Z,5.29
2023-01-19T03:08:17.788Z,5.28
2023-01-19T03:11:01.970Z,5.31
2023-01-19T03:13:46.044Z,5.08
2023-01-19T03:16:23.157Z,5.23
2023-01-19T03:19:02.972Z,5.04
2023-01-19T03:21:42.886Z,5.14
2023-01-19T03:24:20.620Z,5.00
2023-01-19T03:26:59.730Z,5.07
2023-01-19T03:29:36.297Z,5.05
2023-01-19T03:32:15.962Z,5.01
2023-01-19T03:34:52.766Z,4.84
2023-01-19T03:37:28.713Z,4.96
2023-01-19T03:40:03.007Z,4.96
2023-01-19T03:42:39.715Z,4.93
2023-01-19T03:45:16.186Z,4.96
2023-01-19T03:47:51.679Z,4.77
2023-01-19T03:50:28.956Z,4.84
2023-01-19T03:53:08.358Z,4.89
2023-01-19T03:55:44.963Z,4.98
2023-01-19T03:58:19.706Z,4.99
2023-01-19T04:00:55.549Z,4.90
2023-01-19T04:03:30.115Z,4.79
2023-01-19T04:06:04.454Z,4.78
2023-01-19T04:08:39.192Z,4.77
2023-01-19T04:11:13.461Z,4.76
2023-01-19T04:13:47.976Z,4.75
2023-01-19T04:16:23.654Z,4.79
2023-01-19T04:18:58.195Z,4.73
2023-01-19T04:21:32.774Z,4.65
2023-01-19T04:24:08.097Z,4.79
2023-01-19T04:26:42.255Z,4.41
2023-01-19T04:29:16.995Z,4.50
2023-01-19T04:31:52.830Z,4.43
2023-01-19T04:34:27.304Z,4.51
2023-01-19T04:37:01.722Z,4.38
2023-01-19T04:39:36.674Z,4.41
2023-01-19T04:42:11.161Z,4.41
2023-01-19T04:44:46.097Z,4.25
2023-01-19T04:47:21.901Z,4.32
2023-01-19T04:49:56.425Z,4.24
2023-01-19T04:52:35.142Z,6.87
2023-01-19T04:55:10.600Z,5.57
2023-01-19T04:57:45.881Z,4.67
2023-01-19T05:00:21.103Z,4.43
2023-01-19T05:02:56.698Z,4.46
2023-01-19T05:05:33.156Z,4.37
2023-01-19T05:08:07.680Z,4.28
2023-01-19T05:10:42.697Z,4.32
2023-01-19T05:13:16.897Z,4.18
2023-01-19T05:15:51.751Z,4.20
2023-01-19T05:18:27.527Z,4.22
2023-01-19T05:21:03.080Z,4.02
2023-01-19T05:23:37.309Z,3.83
2023-01-19T05:26:11.896Z,3.97
2023-01-19T05:28:46.472Z,3.85
2023-01-19T05:31:21.212Z,3.73
2023-01-19T05:33:57.073Z,3.75
2023-01-19T05:36:32.029Z,3.61
2023-01-19T05:39:06.812Z,3.66
2023-01-19T05:41:42.145Z,3.90
2023-01-19T05:44:16.329Z,5.64
2023-01-19T05:46:50.881Z,4.33
2023-01-19T05:49:26.758Z,7.14
2023-01-19T05:52:01.507Z,5.22
2023-01-19T05:54:35.679Z,4.74
2023-01-19T05:57:10.881Z,4.27
2023-01-19T05:59:45.231Z,4.13
2023-01-19T06:02:19.801Z,4.16
2023-01-19T06:04:56.237Z,4.05
2023-01-19T06:07:31.891Z,4.03
2023-01-19T06:10:07.508Z,4.12
2023-01-19T06:12:42.353Z,5.59
2023-01-19T06:15:17.072Z,4.57
2023-01-19T06:17:51.379Z,4.11
2023-01-19T06:20:27.411Z,3.99
2023-01-19T06:23:02.300Z,3.93
2023-01-19T06:25:37.031Z,4.06
2023-01-19T06:28:11.210Z,4.01
2023-01-19T06:30:49.366Z,4.02
2023-01-19T06:33:24.717Z,3.87
2023-01-19T06:36:00.926Z,3.91
2023-01-19T06:38:35.633Z,3.90
2023-01-19T06:41:10.153Z,3.89
2023-01-19T06:43:44.493Z,3.93
2023-01-19T06:46:19.086Z,3.83
2023-01-19T06:48:53.847Z,3.87
2023-01-19T06:51:30.171Z,3.88
2023-01-19T06:54:04.547Z,4.02
2023-01-19T06:56:39.064Z,4.03
2023-01-19T06:59:13.235Z,4.03
2023-01-19T07:03:20.668Z,8.67
2023-01-19T07:05:57.036Z,8.67
2023-01-19T07:08:31.587Z,6.02
2023-01-19T07:11:24.891Z,5.38
2023-01-19T07:14:03.515Z,4.78
2023-01-19T07:16:38.082Z,4.30
2023-01-19T07:19:14.412Z,3.98
2023-01-19T07:21:48.872Z,3.82
2023-01-19T07:24:23.141Z,3.73
2023-01-19T07:27:02.031Z,3.60
2023-01-19T07:29:36.221Z,3.72
2023-01-19T07:32:11.136Z,3.59
2023-01-19T07:34:46.916Z,3.56
2023-01-19T07:37:21.779Z,3.59
2023-01-19T07:39:56.156Z,3.62
2023-01-19T07:42:30.715Z,5.30
2023-01-19T07:45:06.123Z,6.21
2023-01-19T07:47:40.642Z,4.57
2023-01-19T07:50:17.060Z,4.36
2023-01-19T07:52:53.550Z,5.44
2023-01-19T07:55:27.806Z,6.17
2023-01-19T07:58:05.218Z,4.41
2023-01-19T08:00:40.107Z,4.11
2023-01-19T08:03:14.674Z,3.69
2023-01-19T08:05:53.730Z,3.49
2023-01-19T08:08:28.239Z,3.63
2023-01-19T08:11:03.194Z,3.38
2023-01-19T08:13:37.793Z,3.37
2023-01-19T08:16:12.071Z,3.18
2023-01-19T08:18:46.666Z,3.34
2023-01-19T08:21:22.708Z,3.32
2023-01-19T08:23:58.765Z,3.25
2023-01-19T08:26:34.933Z,3.25
2023-01-19T08:29:09.463Z,3.11
2023-01-19T08:31:44.084Z,3.26
2023-01-19T08:34:18.780Z,6.08
2023-01-19T08:36:54.428Z,4.01
2023-01-19T08:39:29.043Z,3.65
2023-01-19T08:42:03.269Z,3.48
2023-01-19T08:44:43.779Z,3.46
2023-01-19T08:47:24.043Z,3.30
2023-01-19T08:49:58.725Z,3.37
2023-01-19T08:52:34.609Z,5.38
2023-01-19T08:55:11.282Z,4.59
2023-01-19T08:57:45.617Z,5.18
2023-01-19T09:00:21.232Z,4.36
2023-01-19T09:02:56.701Z,3.93
2023-01-19T09:05:32.043Z,3.66
2023-01-19T09:08:10.577Z,3.59
2023-01-19T09:10:49.958Z,3.53
2023-01-19T09:13:24.218Z,3.51
2023-01-19T09:15:58.906Z,3.27
2023-01-19T09:18:33.762Z,3.25
2023-01-19T09:21:08.561Z,3.13
2023-01-19T09:23:44.766Z,3.19
2023-01-19T09:26:19.767Z,2.87
2023-01-19T09:28:54.014Z,2.78
2023-01-19T09:31:28.899Z,2.74
2023-01-19T09:34:03.328Z,2.64
2023-01-19T09:36:39.703Z,2.66
2023-01-19T09:39:15.380Z,2.59
2023-01-19T09:41:57.501Z,2.63
2023-01-19T09:44:36.846Z,2.68
2023-01-19T09:47:15.776Z,2.64
2023-01-19T09:49:55.121Z,4.94
2023-01-19T09:52:34.043Z,3.31
2023-01-19T09:55:22.054Z,2.83
2023-01-19T09:57:56.666Z,3.41
2023-01-19T10:00:32.849Z,2.86
2023-01-19T10:03:16.803Z,2.71
2023-01-19T10:05:57.021Z,2.64
2023-01-19T10:08:40.907Z,2.60
2023-01-19T10:11:34.509Z,2.57
2023-01-19T10:14:26.984Z,2.63
2023-01-19T10:17:10.043Z,2.58
2023-01-19T10:19:49.532Z,2.56
2023-01-19T10:22:26.276Z,2.57
2023-01-19T10:25:06.145Z,2.55
2023-01-19T10:27:42.288Z,2.56
2023-01-19T10:30:23.438Z,2.47
2023-01-19T10:32:57.998Z,2.44
2023-01-19T10:35:34.456Z,2.50
2023-01-19T10:38:15.199Z,2.47
2023-01-19T10:40:58.698Z,2.38
2023-01-19T10:43:45.750Z,2.45
2023-01-19T10:46:24.650Z,2.35
2023-01-19T10:48:59.410Z,2.40
2023-01-19T10:51:34.242Z,2.42
2023-01-19T10:54:14.484Z,2.41
2023-01-19T10:56:54.578Z,2.41
2023-01-19T10:59:35.957Z,2.60
2023-01-19T11:02:20.386Z,2.48
2023-01-19T11:04:56.587Z,2.50
2023-01-19T11:07:33.129Z,2.97
2023-01-19T11:10:22.620Z,3.75
2023-01-19T11:13:03.967Z,2.69
2023-01-19T11:15:43.859Z,2.50
2023-01-19T11:18:28.547Z,2.45
2023-01-19T11:21:06.536Z,2.29
2023-01-19T11:23:46.399Z,2.28
2023-01-19T11:26:28.807Z,2.31
2023-01-19T11:29:05.391Z,2.38
2023-01-19T11:31:42.012Z,2.30
2023-01-19T11:34:33.018Z,2.33
2023-01-19T11:37:26.379Z,2.45
2023-01-19T11:40:03.106Z,2.26
2023-01-19T11:42:37.786Z,2.35
2023-01-19T11:45:15.889Z,2.34
2023-01-19T11:47:52.669Z,2.33
2023-01-19T11:50:32.973Z,2.32
2023-01-19T11:53:15.594Z,2.31
2023-01-19T11:55:55.204Z,2.17
2023-01-19T11:58:29.918Z,2.19
2023-01-19T12:01:09.270Z,2.94
2023-01-19T12:03:48.721Z,3.19
2023-01-19T12:06:28.022Z,2.78
2023-01-19T12:09:06.602Z,2.49
2023-01-19T12:11:45.473Z,2.49
2023-01-19T12:14:26.851Z,2.34
2023-01-19T12:17:04.610Z,2.27
2023-01-19T12:19:46.275Z,2.42
2023-01-19T12:22:22.682Z,2.35
2023-01-19T12:25:05.402Z,2.38
2023-01-19T12:27:41.902Z,2.50
2023-01-19T12:30:21.845Z,3.71
2023-01-19T12:33:38.496Z,3.26
2023-01-19T12:36:38.664Z,2.74
2023-01-19T12:39:19.238Z,2.72
2023-01-19T12:42:08.315Z,2.63
2023-01-19T12:44:43.576Z,2.52
2023-01-19T12:47:24.497Z,2.45
2023-01-19T12:50:03.334Z,2.53
2023-01-19T12:52:48.055Z,2.50
2023-01-19T12:55:25.356Z,2.37
2023-01-19T12:58:02.574Z,2.50
2023-01-19T13:00:39.918Z,2.59
2023-01-19T13:03:57.696Z,2.53
2023-01-19T13:07:05.993Z,2.45
2023-01-19T13:09:43.343Z,2.53
2023-01-19T13:12:27.665Z,2.53
2023-01-19T13:15:38.976Z,2.47
2023-01-19T13:18:18.765Z,2.46
2023-01-19T13:20:58.398Z,2.42
2023-01-19T13:23:54.143Z,2.41
2023-01-19T13:26:34.224Z,2.45
2023-01-19T13:29:11.781Z,2.46
2023-01-19T13:31:49.043Z,2.48
2023-01-19T13:34:26.258Z,2.38
2023-01-19T13:37:02.074Z,2.40
2023-01-19T13:39:39.072Z,2.52
2023-01-19T13:42:19.798Z,2.42
2023-01-19T13:44:55.692Z,3.74
2023-01-19T13:47:38.988Z,2.82
2023-01-19T13:50:21.220Z,2.67
2023-01-19T13:52:56.812Z,2.79
2023-01-19T13:55:33.022Z,2.99
2023-01-19T13:58:22.454Z,3.09
2023-01-19T14:00:56.792Z,3.00
2023-01-19T14:03:31.545Z,3.12
2023-01-19T14:06:06.186Z,3.09
2023-01-19T14:08:40.998Z,3.12
2023-01-19T14:11:15.845Z,3.00
2023-01-19T14:13:51.964Z,2.96
2023-01-19T14:16:26.471Z,2.85
2023-01-19T14:19:02.403Z,3.01
2023-01-19T14:21:41.621Z,2.88
2023-01-19T14:24:20.661Z,2.88
2023-01-19T14:26:56.430Z,2.89
2023-01-19T14:29:33.998Z,2.76
2023-01-19T14:32:19.496Z,2.74
2023-01-19T14:35:13.340Z,2.71
2023-01-19T14:37:49.245Z,2.72
2023-01-19T14:40:25.499Z,2.68
2023-01-19T14:43:03.188Z,2.63
2023-01-19T14:45:41.513Z,2.59
2023-01-19T14:48:18.756Z,2.47
2023-01-19T14:51:03.670Z,2.45
2023-01-19T14:53:39.114Z,2.50
2023-01-19T14:56:14.090Z,2.59
2023-01-19T14:58:48.526Z,2.63
2023-01-19T15:01:28.520Z,2.63
2023-01-19T15:04:31.315Z,4.71
2023-01-19T15:07:07.049Z,3.42
2023-01-19T15:09:41.514Z,3.18
2023-01-19T15:12:20.812Z,3.02
2023-01-19T15:14:55.317Z,2.88
2023-01-19T15:17:29.897Z,2.83
2023-01-19T15:20:14.711Z,2.67
2023-01-19T15:22:49.870Z,2.59
2023-01-19T15:25:26.845Z,2.66
2023-01-19T15:28:04.318Z,2.55
2023-01-19T15:30:40.541Z,2.52
2023-01-19T15:33:20.914Z,2.56
2023-01-19T15:35:56.540Z,2.60
2023-01-19T15:38:31.209Z,2.61
2023-01-19T15:41:05.487Z,2.60
2023-01-19T15:43:40.186Z,2.58
2023-01-19T15:46:16.009Z,2.48
2023-01-19T15:48:51.037Z,2.51
2023-01-19T15:51:27.771Z,2.49
2023-01-19T15:54:02.504Z,2.45
2023-01-19T15:56:36.817Z,2.55
2023-01-19T15:59:11.539Z,2.52
2023-01-19T16:01:45.897Z,2.57
2023-01-19T16:04:20.502Z,2.49
2023-01-19T16:06:56.273Z,2.51
2023-01-19T16:09:30.913Z,2.46
2023-01-19T16:12:05.272Z,4.07
2023-01-19T16:14:39.915Z,3.49
2023-01-19T16:17:14.171Z,3.03
2023-01-19T16:19:49.177Z,2.82
2023-01-19T16:22:24.964Z,2.63
2023-01-19T16:24:59.649Z,2.64
2023-01-19T16:27:33.968Z,2.72
2023-01-19T16:30:12.102Z,2.53
2023-01-19T16:32:47.463Z,2.60
2023-01-19T16:35:22.122Z,2.60
2023-01-19T16:37:57.859Z,2.59
2023-01-19T16:40:32.500Z,2.69
2023-01-19T16:43:06.836Z,2.59
2023-01-19T16:45:58.679Z,2.52
2023-01-19T16:48:33.290Z,2.90
2023-01-19T16:51:08.156Z,5.05
2023-01-19T16:53:43.962Z,3.58
2023-01-19T16:56:19.006Z,3.12
2023-01-19T16:58:54.819Z,3.10
2023-01-19T17:01:30.682Z,2.96
2023-01-19T17:04:05.533Z,2.89
2023-01-19T17:06:40.109Z,2.73
2023-01-19T17:09:16.027Z,2.79
2023-01-19T17:11:50.620Z,2.63
2023-01-19T17:14:24.956Z,2.78
2023-01-19T17:17:02.729Z,2.67
2023-01-19T17:19:37.470Z,2.72
2023-01-19T17:22:13.173Z,2.68
2023-01-19T17:24:49.990Z,2.78
2023-01-19T17:27:24.768Z,2.83
2023-01-19T17:29:59.330Z,2.91
2023-01-19T17:32:33.872Z,2.80
2023-01-19T17:35:08.667Z,2.95
2023-01-19T17:37:43.588Z,2.86
2023-01-19T17:40:19.641Z,2.89
2023-01-19T17:42:54.180Z,2.64
2023-01-19T17:45:28.461Z,2.59
2023-01-19T17:48:03.605Z,2.72
2023-01-19T17:50:38.151Z,2.66
2023-01-19T17:53:13.487Z,2.72
2023-01-19T17:55:49.276Z,2.76
2023-01-19T17:58:26.157Z,2.72
2023-01-19T18:01:08.518Z,2.78
2023-01-19T18:03:43.896Z,2.83
2023-01-19T18:06:18.985Z,2.85
2023-01-19T18:08:54.214Z,2.85
2023-01-19T18:11:30.240Z,2.74
2023-01-19T18:14:06.859Z,2.75
2023-01-19T18:16:41.788Z,2.56
2023-01-19T18:19:16.867Z,2.54
2023-01-19T18:21:51.372Z,2.49
2023-01-19T18:24:26.318Z,2.48
2023-01-19T18:27:02.647Z,2.43
2023-01-19T18:29:37.191Z,2.24
2023-01-19T18:32:12.138Z,2.21
2023-01-19T18:34:48.201Z,2.13
2023-01-19T18:37:23.146Z,2.26
2023-01-19T18:40:02.196Z,2.31
2023-01-19T18:42:38.143Z,2.20
2023-01-19T18:45:13.477Z,2.24
2023-01-19T18:47:48.092Z,1.98
2023-01-19T18:50:22.691Z,2.06
2023-01-19T18:52:57.053Z,2.07
2023-01-19T18:55:31.676Z,2.07
2023-01-19T18:58:08.854Z,1.98
2023-01-19T19:00:43.706Z,2.04
2023-01-19T19:03:18.436Z,2.01
2023-01-19T19:05:53.600Z,2.03
2023-01-19T19:08:28.211Z,1.78
2023-01-19T19:11:02.924Z,1.82
2023-01-19T19:13:38.768Z,1.75
2023-01-19T19:16:14.759Z,1.94
2023-01-19T19:18:50.144Z,2.00
2023-01-19T19:21:25.648Z,2.08
2023-01-19T19:24:00.733Z,4.00
2023-01-19T19:26:35.965Z,8.57
2023-01-19T19:29:12.944Z,9.31
2023-01-19T19:31:47.801Z,6.31
2023-01-19T19:34:24.667Z,4.63
2023-01-19T19:37:01.118Z,3.82
2023-01-19T19:39:36.129Z,3.13
2023-01-19T19:42:11.532Z,2.93
2023-01-19T19:44:48.791Z,2.78
2023-01-19T19:47:24.564Z,2.76
2023-01-19T19:49:59.553Z,2.66
2023-01-19T19:52:39.468Z,2.63
2023-01-19T19:55:14.070Z,2.63
2023-01-19T19:57:49.083Z,2.34
2023-01-19T20:00:25.221Z,2.42
2023-01-19T20:02:59.685Z,2.44
2023-01-19T20:05:37.213Z,2.43
2023-01-19T20:08:13.743Z,2.55
2023-01-19T20:10:48.395Z,2.43
2023-01-19T20:13:23.395Z,2.14
2023-01-19T20:16:04.315Z,2.14
2023-01-19T20:18:40.836Z,1.91
2023-01-19T20:21:17.336Z,1.91
2023-01-19T20:23:53.137Z,1.79
2023-01-19T20:26:30.150Z,1.71
2023-01-19T20:29:07.407Z,1.66
2023-01-19T20:31:45.805Z,1.98
2023-01-19T20:34:23.167Z,4.38
2023-01-19T20:36:58.656Z,8.35
2023-01-19T20:39:35.484Z,9.04
2023-01-19T20:42:11.613Z,6.45
2023-01-19T20:44:46.162Z,4.37
2023-01-19T20:47:22.156Z,3.44
2023-01-19T20:49:56.924Z,2.68
2023-01-19T20:52:31.516Z,2.42
2023-01-19T20:55:08.869Z,2.17
2023-01-19T20:57:43.851Z,1.92
2023-01-19T21:00:19.288Z,1.86
2023-01-19T21:02:56.568Z,1.83
2023-01-19T21:05:31.349Z,1.84
2023-01-19T21:08:06.258Z,1.66
2023-01-19T21:10:40.880Z,1.64
2023-01-19T21:13:15.256Z,1.52
2023-01-19T21:15:50.093Z,1.44
2023-01-19T21:18:28.004Z,1.22
2023-01-19T21:21:02.548Z,1.43
2023-01-19T21:23:36.784Z,1.45
2023-01-19T21:26:13.211Z,1.45
2023-01-19T21:28:47.427Z,6.19
2023-01-19T21:31:27.090Z,7.69
2023-01-19T21:34:03.115Z,4.52
2023-01-19T21:36:37.611Z,3.14
2023-01-19T21:39:12.105Z,2.68
2023-01-19T21:41:46.802Z,2.52
2023-01-19T21:44:21.376Z,2.42
2023-01-19T21:46:55.990Z,2.44
2023-01-19T21:49:32.955Z,2.47
2023-01-19T21:52:07.507Z,2.43
2023-01-19T21:54:42.099Z,2.49
2023-01-19T21:57:19.703Z,2.31
2023-01-19T21:59:54.190Z,2.41
2023-01-19T22:02:38.341Z,2.05
2023-01-19T22:05:15.388Z,1.84
2023-01-19T22:07:50.293Z,1.77
2023-01-19T22:10:24.929Z,1.58
2023-01-19T22:12:59.282Z,1.62
2023-01-19T22:15:33.785Z,1.77
2023-01-19T22:18:08.343Z,1.82
2023-01-19T22:20:44.402Z,1.89
2023-01-19T22:23:18.619Z,1.97
2023-01-19T22:25:53.219Z,1.89
2023-01-19T22:28:27.562Z,1.67
2023-01-19T22:31:07.424Z,1.73
2023-01-19T22:33:41.923Z,1.93
2023-01-19T22:36:20.751Z,1.97
2023-01-19T22:38:56.678Z,1.65
2023-01-19T22:41:32.959Z,1.56
2023-01-19T22:44:09.194Z,1.56
2023-01-19T22:46:44.506Z,1.42
2023-01-19T22:49:19.874Z,1.71
2023-01-19T22:51:55.954Z,1.51
2023-01-19T22:54:30.324Z,1.49
2023-01-19T22:57:11.256Z,1.43
2023-01-19T22:59:45.444Z,1.52
2023-01-19T23:02:54.971Z,2.02
2023-01-19T23:05:29.978Z,2.02
2023-01-19T23:08:04.475Z,1.51
2023-01-19T23:10:40.067Z,1.25
2023-01-19T23:13:14.567Z,1.09
2023-01-19T23:15:49.152Z,1.40
2023-01-19T23:18:24.877Z,1.27
2023-01-19T23:21:04.113Z,1.39
2023-01-19T23:23:39.513Z,1.27
2023-01-19T23:26:17.011Z,1.29
2023-01-19T23:28:56.292Z,1.35
2023-01-19T23:31:32.494Z,1.36
2023-01-19T23:34:09.974Z,1.57
2023-01-19T23:36:45.021Z,1.29
2023-01-19T23:39:21.469Z,1.26
2023-01-19T23:41:56.164Z,1.43
2023-01-19T23:44:30.318Z,1.33
2023-01-19T23:47:04.803Z,1.55
2023-01-19T23:49:40.643Z,1.61
2023-01-19T23:52:15.349Z,1.82
2023-01-19T23:54:49.463Z,1.72
2023-01-19T23:57:24.228Z,1.61
2023-01-19T23:59:58.477Z,1.67
